sensor_id;sensor_type;location;lat;lon;timestamp;pressure;altitude;pressure_sealevel;temperature;humidity
34658;BME280;20865;43.312;27.152;2023-05-11T00:03:29;101058.25;;;14.94;37.09
34658;BME280;20865;43.312;27.152;2023-05-11T00:05:57;101067.08;;;14.86;37.51
34658;BME280;20865;43.312;27.152;2023-05-11T00:08:24;101057.40;;;14.80;37.71
34658;BME280;20865;43.312;27.152;2023-05-11T00:10:51;101063.16;;;14.69;38.17
34658;BME280;20865;43.312;27.152;2023-05-11T00:13:18;101063.56;;;14.70;38.26
34658;BME280;20865;43.312;27.152;2023-05-11T00:15:45;101069.71;;;14.74;38.23
34658;BME280;20865;43.312;27.152;2023-05-11T00:18:12;101063.67;;;14.67;37.61
34658;BME280;20865;43.312;27.152;2023-05-11T00:20:38;101060.88;;;14.57;37.61
34658;BME280;20865;43.312;27.152;2023-05-11T00:23:05;101066.26;;;14.57;37.71
34658;BME280;20865;43.312;27.152;2023-05-11T00:25:32;101071.41;;;14.51;37.92
34658;BME280;20865;43.312;27.152;2023-05-11T00:27:59;101080.52;;;14.46;38.07
34658;BME280;20865;43.312;27.152;2023-05-11T00:30:26;101072.04;;;14.45;38.29
34658;BME280;20865;43.312;27.152;2023-05-11T00:32:52;101074.33;;;14.44;38.15
34658;BME280;20865;43.312;27.152;2023-05-11T00:35:19;101071.56;;;14.45;38.06
34658;BME280;20865;43.312;27.152;2023-05-11T00:37:46;101070.39;;;14.41;37.87
34658;BME280;20865;43.312;27.152;2023-05-11T00:40:13;101064.64;;;14.38;38.11
34658;BME280;20865;43.312;27.152;2023-05-11T00:42:40;101070.49;;;14.38;38.09
34658;BME280;20865;43.312;27.152;2023-05-11T00:45:07;101072.41;;;14.34;38.37
34658;BME280;20865;43.312;27.152;2023-05-11T00:47:34;101069.88;;;14.29;38.08
34658;BME280;20865;43.312;27.152;2023-05-11T00:50:01;101068.42;;;14.19;38.04
34658;BME280;20865;43.312;27.152;2023-05-11T00:52:27;101074.61;;;14.21;38.32
34658;BME280;20865;43.312;27.152;2023-05-11T00:54:55;101059.83;;;14.21;38.22
34658;BME280;20865;43.312;27.152;2023-05-11T00:57:22;101062.14;;;14.19;38.18
34658;BME280;20865;43.312;27.152;2023-05-11T00:59:48;101067.68;;;14.14;38.10
34658;BME280;20865;43.312;27.152;2023-05-11T01:02:15;101067.87;;;14.08;38.17
34658;BME280;20865;43.312;27.152;2023-05-11T01:04:43;101064.69;;;14.10;38.34
34658;BME280;20865;43.312;27.152;2023-05-11T01:07:18;101068.03;;;14.03;38.41
34658;BME280;20865;43.312;27.152;2023-05-11T01:12:28;101060.75;;;14.07;38.29
34658;BME280;20865;43.312;27.152;2023-05-11T01:20:01;101060.47;;;14.01;38.84
34658;BME280;20865;43.312;27.152;2023-05-11T01:32:25;101067.75;;;13.85;37.39
34658;BME280;20865;43.312;27.152;2023-05-11T01:34:58;101066.19;;;13.77;37.67
34658;BME280;20865;43.312;27.152;2023-05-11T01:37:21;101064.56;;;13.72;37.61
34658;BME280;20865;43.312;27.152;2023-05-11T01:39:52;101061.03;;;13.70;37.68
34658;BME280;20865;43.312;27.152;2023-05-11T01:42:20;101062.84;;;13.69;37.84
34658;BME280;20865;43.312;27.152;2023-05-11T01:44:48;101063.86;;;13.65;38.14
34658;BME280;20865;43.312;27.152;2023-05-11T01:47:16;101064.36;;;13.63;38.31
34658;BME280;20865;43.312;27.152;2023-05-11T01:49:43;101068.02;;;13.75;38.11
34658;BME280;20865;43.312;27.152;2023-05-11T01:52:11;101067.47;;;13.79;37.97
34658;BME280;20865;43.312;27.152;2023-05-11T01:54:39;101069.43;;;13.74;38.08
34658;BME280;20865;43.312;27.152;2023-05-11T01:57:07;101073.77;;;13.78;38.26
34658;BME280;20865;43.312;27.152;2023-05-11T01:59:35;101063.44;;;13.79;38.42
34658;BME280;20865;43.312;27.152;2023-05-11T02:02:04;101059.41;;;13.79;38.96
34658;BME280;20865;43.312;27.152;2023-05-11T02:04:32;101060.69;;;13.80;39.21
34658;BME280;20865;43.312;27.152;2023-05-11T02:07:00;101064.37;;;13.78;39.41
34658;BME280;20865;43.312;27.152;2023-05-11T02:09:28;101074.03;;;13.83;39.63
34658;BME280;20865;43.312;27.152;2023-05-11T02:11:55;101066.41;;;13.85;39.80
34658;BME280;20865;43.312;27.152;2023-05-11T02:14:24;101068.72;;;13.82;39.70
34658;BME280;20865;43.312;27.152;2023-05-11T02:16:54;101067.31;;;13.83;39.42
34658;BME280;20865;43.312;27.152;2023-05-11T02:19:21;101066.81;;;13.86;38.99
34658;BME280;20865;43.312;27.152;2023-05-11T02:21:48;101062.50;;;13.80;38.78
34658;BME280;20865;43.312;27.152;2023-05-11T02:24:16;101066.59;;;13.78;38.78
34658;BME280;20865;43.312;27.152;2023-05-11T02:26:44;101060.19;;;13.82;38.61
34658;BME280;20865;43.312;27.152;2023-05-11T02:29:11;101063.28;;;13.83;38.71
34658;BME280;20865;43.312;27.152;2023-05-11T02:31:39;101061.44;;;13.86;38.48
34658;BME280;20865;43.312;27.152;2023-05-11T02:34:07;101055.88;;;13.77;38.76
34658;BME280;20865;43.312;27.152;2023-05-11T02:36:36;101058.34;;;13.70;38.74
34658;BME280;20865;43.312;27.152;2023-05-11T02:39:04;101057.37;;;13.72;39.19
34658;BME280;20865;43.312;27.152;2023-05-11T02:41:31;101058.56;;;13.77;39.31
34658;BME280;20865;43.312;27.152;2023-05-11T02:44:00;101058.69;;;13.74;39.31
34658;BME280;20865;43.312;27.152;2023-05-11T02:46:29;101055.53;;;13.74;39.19
34658;BME280;20865;43.312;27.152;2023-05-11T02:48:56;101055.09;;;13.73;38.96
34658;BME280;20865;43.312;27.152;2023-05-11T02:51:27;101060.37;;;13.76;38.48
34658;BME280;20865;43.312;27.152;2023-05-11T02:53:53;101064.09;;;13.72;38.24
34658;BME280;20865;43.312;27.152;2023-05-11T02:56:22;101059.52;;;13.61;38.38
34658;BME280;20865;43.312;27.152;2023-05-11T02:58:49;101068.52;;;13.60;38.41
34658;BME280;20865;43.312;27.152;2023-05-11T03:01:16;101066.26;;;13.59;38.45
34658;BME280;20865;43.312;27.152;2023-05-11T03:03:43;101073.97;;;13.57;38.55
34658;BME280;20865;43.312;27.152;2023-05-11T03:06:10;101068.16;;;13.56;38.56
34658;BME280;20865;43.312;27.152;2023-05-11T03:08:37;101065.45;;;13.57;38.85
34658;BME280;20865;43.312;27.152;2023-05-11T03:11:04;101071.75;;;13.56;39.23
34658;BME280;20865;43.312;27.152;2023-05-11T03:13:31;101068.86;;;13.63;39.28
34658;BME280;20865;43.312;27.152;2023-05-11T03:15:59;101078.22;;;13.64;39.33
34658;BME280;20865;43.312;27.152;2023-05-11T03:18:27;101078.63;;;13.65;39.14
34658;BME280;20865;43.312;27.152;2023-05-11T03:20:56;101073.67;;;13.66;39.18
34658;BME280;20865;43.312;27.152;2023-05-11T03:23:23;101076.33;;;13.68;39.24
34658;BME280;20865;43.312;27.152;2023-05-11T03:25:50;101077.23;;;13.67;39.34
34658;BME280;20865;43.312;27.152;2023-05-11T03:28:17;101074.83;;;13.72;39.17
34658;BME280;20865;43.312;27.152;2023-05-11T03:30:45;101088.26;;;13.72;39.41
34658;BME280;20865;43.312;27.152;2023-05-11T03:33:13;101087.67;;;13.77;39.45
34658;BME280;20865;43.312;27.152;2023-05-11T03:35:40;101087.05;;;13.82;39.68
34658;BME280;20865;43.312;27.152;2023-05-11T03:38:07;101100.30;;;13.89;39.91
34658;BME280;20865;43.312;27.152;2023-05-11T03:40:35;101092.23;;;13.89;40.12
34658;BME280;20865;43.312;27.152;2023-05-11T03:43:03;101095.64;;;13.94;40.50
34658;BME280;20865;43.312;27.152;2023-05-11T03:45:30;101092.21;;;14.03;40.68
34658;BME280;20865;43.312;27.152;2023-05-11T03:47:58;101094.89;;;14.03;40.93
34658;BME280;20865;43.312;27.152;2023-05-11T03:50:26;101109.11;;;14.07;41.38
34658;BME280;20865;43.312;27.152;2023-05-11T03:52:52;101100.55;;;14.09;41.43
34658;BME280;20865;43.312;27.152;2023-05-11T03:55:20;101109.23;;;14.17;41.74
34658;BME280;20865;43.312;27.152;2023-05-11T03:57:47;101109.95;;;14.22;42.03
34658;BME280;20865;43.312;27.152;2023-05-11T04:00:14;101108.20;;;14.21;42.13
34658;BME280;20865;43.312;27.152;2023-05-11T04:02:41;101108.28;;;14.33;41.73
34658;BME280;20865;43.312;27.152;2023-05-11T04:05:08;101106.69;;;14.41;41.25
34658;BME280;20865;43.312;27.152;2023-05-11T04:07:36;101110.08;;;14.46;40.87
34658;BME280;20865;43.312;27.152;2023-05-11T04:10:04;101100.81;;;14.56;40.71
34658;BME280;20865;43.312;27.152;2023-05-11T04:12:31;101105.45;;;14.64;40.59
34658;BME280;20865;43.312;27.152;2023-05-11T04:14:58;101105.14;;;14.73;40.63
34658;BME280;20865;43.312;27.152;2023-05-11T04:17:24;101109.85;;;14.80;40.97
34658;BME280;20865;43.312;27.152;2023-05-11T04:19:51;101108.23;;;14.88;40.95
34658;BME280;20865;43.312;27.152;2023-05-11T04:22:18;101106.27;;;14.93;41.36
34658;BME280;20865;43.312;27.152;2023-05-11T04:24:45;101112.76;;;14.99;41.32
34658;BME280;20865;43.312;27.152;2023-05-11T04:27:12;101115.78;;;15.03;41.24
34658;BME280;20865;43.312;27.152;2023-05-11T04:29:41;101120.78;;;15.14;41.44
34658;BME280;20865;43.312;27.152;2023-05-11T04:32:07;101126.57;;;15.27;41.80
34658;BME280;20865;43.312;27.152;2023-05-11T04:34:34;101119.91;;;15.25;41.86
34658;BME280;20865;43.312;27.152;2023-05-11T04:37:01;101112.67;;;15.39;41.84
34658;BME280;20865;43.312;27.152;2023-05-11T04:39:29;101111.51;;;15.46;41.94
34658;BME280;20865;43.312;27.152;2023-05-11T04:41:57;101117.47;;;15.54;41.99
34658;BME280;20865;43.312;27.152;2023-05-11T04:44:24;101117.65;;;15.61;42.08
34658;BME280;20865;43.312;27.152;2023-05-11T04:46:54;101110.72;;;15.67;41.96
34658;BME280;20865;43.312;27.152;2023-05-11T04:49:21;101123.08;;;15.48;42.50
34658;BME280;20865;43.312;27.152;2023-05-11T04:51:48;101119.43;;;15.62;42.20
34658;BME280;20865;43.312;27.152;2023-05-11T04:54:15;101125.89;;;15.70;42.23
34658;BME280;20865;43.312;27.152;2023-05-11T04:56:42;101119.27;;;15.79;41.79
34658;BME280;20865;43.312;27.152;2023-05-11T04:59:09;101121.85;;;15.93;41.73
34658;BME280;20865;43.312;27.152;2023-05-11T05:01:35;101126.02;;;16.12;41.59
34658;BME280;20865;43.312;27.152;2023-05-11T05:04:02;101129.39;;;16.29;41.63
34658;BME280;20865;43.312;27.152;2023-05-11T05:06:29;101129.05;;;16.59;41.15
34658;BME280;20865;43.312;27.152;2023-05-11T05:08:57;101125.70;;;16.86;40.98
34658;BME280;20865;43.312;27.152;2023-05-11T05:11:24;101124.57;;;17.12;40.42
34658;BME280;20865;43.312;27.152;2023-05-11T05:13:50;101126.31;;;17.33;40.02
34658;BME280;20865;43.312;27.152;2023-05-11T05:16:18;101135.23;;;17.65;39.71
34658;BME280;20865;43.312;27.152;2023-05-11T05:18:44;101133.19;;;17.80;39.25
34658;BME280;20865;43.312;27.152;2023-05-11T05:21:11;101130.44;;;18.09;39.39
34658;BME280;20865;43.312;27.152;2023-05-11T05:23:38;101133.72;;;18.35;39.10
34658;BME280;20865;43.312;27.152;2023-05-11T05:26:05;101124.14;;;18.55;38.40
34658;BME280;20865;43.312;27.152;2023-05-11T05:28:32;101126.72;;;18.75;38.72
34658;BME280;20865;43.312;27.152;2023-05-11T05:31:00;101125.39;;;19.01;38.19
34658;BME280;20865;43.312;27.152;2023-05-11T05:33:27;101127.06;;;19.21;38.24
34658;BME280;20865;43.312;27.152;2023-05-11T05:35:54;101121.58;;;19.47;37.79
34658;BME280;20865;43.312;27.152;2023-05-11T05:38:20;101126.73;;;19.69;37.48
34658;BME280;20865;43.312;27.152;2023-05-11T05:40:47;101131.76;;;19.93;37.21
34658;BME280;20865;43.312;27.152;2023-05-11T05:43:14;101121.63;;;20.12;37.55
34658;BME280;20865;43.312;27.152;2023-05-11T05:45:41;101136.05;;;20.29;36.91
34658;BME280;20865;43.312;27.152;2023-05-11T05:48:07;101139.53;;;20.46;37.35
34658;BME280;20865;43.312;27.152;2023-05-11T05:50:34;101141.25;;;20.72;36.96
34658;BME280;20865;43.312;27.152;2023-05-11T05:53:01;101134.23;;;20.91;36.75
34658;BME280;20865;43.312;27.152;2023-05-11T05:55:28;101149.47;;;20.93;36.15
34658;BME280;20865;43.312;27.152;2023-05-11T05:57:55;101141.69;;;20.87;36.80
34658;BME280;20865;43.312;27.152;2023-05-11T06:00:22;101141.44;;;20.92;37.04
34658;BME280;20865;43.312;27.152;2023-05-11T06:02:48;101150.98;;;21.06;36.52
34658;BME280;20865;43.312;27.152;2023-05-11T06:05:15;101146.30;;;21.08;36.51
34658;BME280;20865;43.312;27.152;2023-05-11T06:07:42;101143.38;;;20.97;37.07
34658;BME280;20865;43.312;27.152;2023-05-11T06:10:09;101141.67;;;21.10;37.27
34658;BME280;20865;43.312;27.152;2023-05-11T06:12:36;101149.73;;;21.26;37.63
34658;BME280;20865;43.312;27.152;2023-05-11T06:15:03;101143.89;;;21.34;37.23
34658;BME280;20865;43.312;27.152;2023-05-11T06:17:30;101146.20;;;21.40;37.56
34658;BME280;20865;43.312;27.152;2023-05-11T06:19:56;101146.50;;;21.35;37.11
34658;BME280;20865;43.312;27.152;2023-05-11T06:22:23;101149.37;;;21.32;37.42
34658;BME280;20865;43.312;27.152;2023-05-11T06:24:50;101146.16;;;21.26;37.51
34658;BME280;20865;43.312;27.152;2023-05-11T06:27:17;101148.25;;;21.44;37.76
34658;BME280;20865;43.312;27.152;2023-05-11T06:29:44;101140.89;;;21.67;37.63
34658;BME280;20865;43.312;27.152;2023-05-11T06:32:11;101139.71;;;21.85;36.91
34658;BME280;20865;43.312;27.152;2023-05-11T06:34:38;101138.13;;;22.10;37.36
34658;BME280;20865;43.312;27.152;2023-05-11T06:37:05;101139.20;;;22.29;36.46
34658;BME280;20865;43.312;27.152;2023-05-11T06:39:35;101137.19;;;22.45;36.96
34658;BME280;20865;43.312;27.152;2023-05-11T06:42:04;101127.78;;;22.44;36.16
34658;BME280;20865;43.312;27.152;2023-05-11T06:44:32;101129.05;;;22.65;35.82
34658;BME280;20865;43.312;27.152;2023-05-11T07:26:02;101132.39;;;22.63;32.70
34658;BME280;20865;43.312;27.152;2023-05-11T07:28:30;101131.32;;;22.24;31.66
34658;BME280;20865;43.312;27.152;2023-05-11T07:30:57;101136.41;;;22.16;32.61
34658;BME280;20865;43.312;27.152;2023-05-11T07:33:24;101133.64;;;22.30;32.98
34658;BME280;20865;43.312;27.152;2023-05-11T07:35:51;101134.01;;;22.46;32.97
34658;BME280;20865;43.312;27.152;2023-05-11T07:38:17;101142.52;;;22.81;32.27
34658;BME280;20865;43.312;27.152;2023-05-11T07:40:44;101144.20;;;22.69;32.51
34658;BME280;20865;43.312;27.152;2023-05-11T07:43:11;101135.20;;;22.62;32.65
34658;BME280;20865;43.312;27.152;2023-05-11T07:45:38;101137.57;;;22.53;32.37
34658;BME280;20865;43.312;27.152;2023-05-11T07:48:05;101132.41;;;22.76;32.12
34658;BME280;20865;43.312;27.152;2023-05-11T07:50:32;101132.89;;;22.28;32.88
34658;BME280;20865;43.312;27.152;2023-05-11T07:52:59;101132.62;;;22.04;33.16
34658;BME280;20865;43.312;27.152;2023-05-11T07:55:26;101136.72;;;21.83;33.43
34658;BME280;20865;43.312;27.152;2023-05-11T07:57:54;101135.50;;;22.30;33.38
34658;BME280;20865;43.312;27.152;2023-05-11T08:00:21;101130.48;;;22.51;31.92
34658;BME280;20865;43.312;27.152;2023-05-11T08:02:48;101137.80;;;22.70;31.84
34658;BME280;20865;43.312;27.152;2023-05-11T08:05:15;101130.97;;;22.50;32.00
34658;BME280;20865;43.312;27.152;2023-05-11T08:07:43;101131.53;;;22.14;32.78
34658;BME280;20865;43.312;27.152;2023-05-11T08:10:10;101131.77;;;22.38;32.76
34658;BME280;20865;43.312;27.152;2023-05-11T08:12:37;101135.61;;;22.00;33.30
34658;BME280;20865;43.312;27.152;2023-05-11T08:15:04;101130.80;;;22.46;33.75
34658;BME280;20865;43.312;27.152;2023-05-11T08:17:31;101146.27;;;22.66;32.80
34658;BME280;20865;43.312;27.152;2023-05-11T08:19:58;101137.42;;;22.42;32.24
34658;BME280;20865;43.312;27.152;2023-05-11T08:22:25;101134.34;;;22.12;33.24
34658;BME280;20865;43.312;27.152;2023-05-11T08:24:52;101139.09;;;22.85;32.20
34658;BME280;20865;43.312;27.152;2023-05-11T08:27:18;101131.47;;;23.29;31.29
34658;BME280;20865;43.312;27.152;2023-05-11T08:29:45;101124.76;;;23.15;31.05
34658;BME280;20865;43.312;27.152;2023-05-11T08:32:12;101143.23;;;22.90;32.06
34658;BME280;20865;43.312;27.152;2023-05-11T08:34:39;101136.80;;;23.31;31.31
34658;BME280;20865;43.312;27.152;2023-05-11T08:37:06;101133.92;;;23.65;30.92
34658;BME280;20865;43.312;27.152;2023-05-11T08:39:33;101135.59;;;23.68;29.55
34658;BME280;20865;43.312;27.152;2023-05-11T08:42:00;101129.30;;;23.47;28.90
34658;BME280;20865;43.312;27.152;2023-05-11T08:44:30;101121.24;;;23.71;28.87
34658;BME280;20865;43.312;27.152;2023-05-11T08:46:58;101124.22;;;23.61;28.63
34658;BME280;20865;43.312;27.152;2023-05-11T08:49:25;101120.42;;;23.18;29.33
34658;BME280;20865;43.312;27.152;2023-05-11T08:51:52;101122.88;;;23.03;29.53
34658;BME280;20865;43.312;27.152;2023-05-11T08:54:18;101119.84;;;23.20;29.31
34658;BME280;20865;43.312;27.152;2023-05-11T08:56:45;101115.52;;;22.71;29.20
34658;BME280;20865;43.312;27.152;2023-05-11T08:59:13;101116.60;;;22.88;29.62
34658;BME280;20865;43.312;27.152;2023-05-11T09:01:40;101104.13;;;22.98;29.88
34658;BME280;20865;43.312;27.152;2023-05-11T09:04:07;101096.95;;;23.23;29.37
34658;BME280;20865;43.312;27.152;2023-05-11T09:06:34;101105.51;;;23.24;28.27
34658;BME280;20865;43.312;27.152;2023-05-11T09:09:02;101099.55;;;22.99;29.31
34658;BME280;20865;43.312;27.152;2023-05-11T09:11:30;101099.55;;;22.52;29.24
34658;BME280;20865;43.312;27.152;2023-05-11T09:13:57;101095.68;;;22.89;29.08
34658;BME280;20865;43.312;27.152;2023-05-11T09:16:24;101096.98;;;23.03;29.36
34658;BME280;20865;43.312;27.152;2023-05-11T09:18:51;101083.50;;;23.40;28.74
34658;BME280;20865;43.312;27.152;2023-05-11T09:21:19;101098.36;;;23.28;29.17
34658;BME280;20865;43.312;27.152;2023-05-11T09:23:48;101102.56;;;23.01;29.87
34658;BME280;20865;43.312;27.152;2023-05-11T09:26:19;101096.16;;;22.95;30.10
34658;BME280;20865;43.312;27.152;2023-05-11T09:28:53;101094.92;;;23.06;30.38
34658;BME280;20865;43.312;27.152;2023-05-11T09:34:09;101077.41;;;22.83;30.46
34658;BME280;20865;43.312;27.152;2023-05-11T09:36:36;101080.33;;;22.88;29.84
34658;BME280;20865;43.312;27.152;2023-05-11T09:39:03;101067.83;;;22.78;29.59
34658;BME280;20865;43.312;27.152;2023-05-11T09:41:31;101083.44;;;23.09;29.81
34658;BME280;20865;43.312;27.152;2023-05-11T09:44:05;101069.49;;;23.26;29.64
34658;BME280;20865;43.312;27.152;2023-05-11T09:46:34;101073.06;;;22.81;28.98
34658;BME280;20865;43.312;27.152;2023-05-11T09:49:02;101084.80;;;23.34;29.23
34658;BME280;20865;43.312;27.152;2023-05-11T09:51:29;101077.00;;;23.48;29.02
34658;BME280;20865;43.312;27.152;2023-05-11T09:53:59;101073.03;;;23.34;28.21
34658;BME280;20865;43.312;27.152;2023-05-11T09:56:49;101071.17;;;23.34;28.35
34658;BME280;20865;43.312;27.152;2023-05-11T09:58:55;101072.69;;;23.38;28.29
34658;BME280;20865;43.312;27.152;2023-05-11T10:01:29;101062.83;;;23.17;27.47
34658;BME280;20865;43.312;27.152;2023-05-11T10:03:57;101066.77;;;23.26;27.15
34658;BME280;20865;43.312;27.152;2023-05-11T10:06:26;101069.49;;;23.26;28.08
34658;BME280;20865;43.312;27.152;2023-05-11T10:08:54;101078.97;;;23.71;27.68
34658;BME280;20865;43.312;27.152;2023-05-11T10:11:21;101067.98;;;23.53;27.25
34658;BME280;20865;43.312;27.152;2023-05-11T10:13:48;101069.22;;;23.36;27.53
34658;BME280;20865;43.312;27.152;2023-05-11T10:16:16;101079.78;;;23.53;26.62
34658;BME280;20865;43.312;27.152;2023-05-11T10:18:44;101070.48;;;23.56;27.15
34658;BME280;20865;43.312;27.152;2023-05-11T10:21:14;101063.92;;;23.27;28.22
34658;BME280;20865;43.312;27.152;2023-05-11T10:23:40;101051.98;;;23.80;27.75
34658;BME280;20865;43.312;27.152;2023-05-11T10:26:07;101061.85;;;24.06;28.03
34658;BME280;20865;43.312;27.152;2023-05-11T10:28:34;101066.52;;;24.22;27.50
34658;BME280;20865;43.312;27.152;2023-05-11T10:31:02;101051.97;;;23.92;27.77
34658;BME280;20865;43.312;27.152;2023-05-11T10:33:29;101059.38;;;24.33;27.41
34658;BME280;20865;43.312;27.152;2023-05-11T10:35:56;101054.23;;;24.22;26.80
34658;BME280;20865;43.312;27.152;2023-05-11T10:38:24;101044.34;;;24.45;27.03
34658;BME280;20865;43.312;27.152;2023-05-11T10:40:51;101052.20;;;24.56;26.43
34658;BME280;20865;43.312;27.152;2023-05-11T10:48:47;101052.55;;;24.92;26.33
34658;BME280;20865;43.312;27.152;2023-05-11T10:59:26;101056.20;;;24.68;26.35
34658;BME280;20865;43.312;27.152;2023-05-11T11:01:49;101045.97;;;24.48;27.01
34658;BME280;20865;43.312;27.152;2023-05-11T11:04:17;101047.97;;;24.57;25.60
34658;BME280;20865;43.312;27.152;2023-05-11T11:06:45;101051.13;;;24.75;25.41
34658;BME280;20865;43.312;27.152;2023-05-11T11:09:13;101050.92;;;24.89;25.11
34658;BME280;20865;43.312;27.152;2023-05-11T11:11:48;101052.31;;;24.95;25.44
34658;BME280;20865;43.312;27.152;2023-05-11T11:14:12;101047.48;;;24.99;25.25
34658;BME280;20865;43.312;27.152;2023-05-11T11:16:40;101039.05;;;25.02;25.56
34658;BME280;20865;43.312;27.152;2023-05-11T11:21:52;101049.66;;;24.82;25.78
34658;BME280;20865;43.312;27.152;2023-05-11T11:27:05;101046.59;;;24.87;26.06
34658;BME280;20865;43.312;27.152;2023-05-11T11:29:35;101047.24;;;25.02;26.39
34658;BME280;20865;43.312;27.152;2023-05-11T11:34:45;101036.53;;;24.87;24.65
34658;BME280;20865;43.312;27.152;2023-05-11T11:37:13;101046.57;;;24.46;24.99
34658;BME280;20865;43.312;27.152;2023-05-11T11:42:10;101044.89;;;23.77;26.37
34658;BME280;20865;43.312;27.152;2023-05-11T11:44:38;101042.81;;;23.81;26.64
34658;BME280;20865;43.312;27.152;2023-05-11T11:47:14;101041.69;;;23.65;27.10
34658;BME280;20865;43.312;27.152;2023-05-11T11:49:42;101055.09;;;23.81;26.96
34658;BME280;20865;43.312;27.152;2023-05-11T11:52:11;101040.53;;;24.11;26.60
34658;BME280;20865;43.312;27.152;2023-05-11T11:54:38;101039.36;;;23.84;26.99
34658;BME280;20865;43.312;27.152;2023-05-11T11:57:51;101024.92;;;24.37;27.08
34658;BME280;20865;43.312;27.152;2023-05-11T11:59:44;101025.16;;;24.58;26.58
34658;BME280;20865;43.312;27.152;2023-05-11T12:02:02;101026.55;;;24.69;26.07
34658;BME280;20865;43.312;27.152;2023-05-11T12:04:43;101027.33;;;23.99;26.35
34658;BME280;20865;43.312;27.152;2023-05-11T12:06:58;101024.68;;;23.61;27.42
34658;BME280;20865;43.312;27.152;2023-05-11T12:09:25;101028.66;;;23.50;27.59
34658;BME280;20865;43.312;27.152;2023-05-11T12:11:52;101023.31;;;23.92;27.61
34658;BME280;20865;43.312;27.152;2023-05-11T12:14:21;101024.09;;;24.00;27.30
34658;BME280;20865;43.312;27.152;2023-05-11T12:17:06;101018.03;;;23.52;28.01
34658;BME280;20865;43.312;27.152;2023-05-11T12:19:29;101014.01;;;23.45;28.55
34658;BME280;20865;43.312;27.152;2023-05-11T12:21:56;101018.53;;;23.52;27.68
34658;BME280;20865;43.312;27.152;2023-05-11T12:24:22;101014.69;;;23.67;27.42
34658;BME280;20865;43.312;27.152;2023-05-11T12:26:50;101012.94;;;23.79;28.06
34658;BME280;20865;43.312;27.152;2023-05-11T12:29:18;101004.95;;;23.94;26.43
34658;BME280;20865;43.312;27.152;2023-05-11T12:31:45;101007.36;;;23.99;26.87
34658;BME280;20865;43.312;27.152;2023-05-11T12:34:15;101010.07;;;23.49;28.40
34658;BME280;20865;43.312;27.152;2023-05-11T12:36:43;101018.72;;;23.43;27.45
34658;BME280;20865;43.312;27.152;2023-05-11T12:39:17;101020.84;;;23.76;27.25
34658;BME280;20865;43.312;27.152;2023-05-11T12:41:44;101010.05;;;23.31;27.23
34658;BME280;20865;43.312;27.152;2023-05-11T12:44:11;101001.81;;;23.57;28.18
34658;BME280;20865;43.312;27.152;2023-05-11T12:46:37;100990.05;;;23.69;27.97
34658;BME280;20865;43.312;27.152;2023-05-11T12:49:04;100995.80;;;23.95;27.71
34658;BME280;20865;43.312;27.152;2023-05-11T12:51:48;100986.13;;;23.97;27.04
34658;BME280;20865;43.312;27.152;2023-05-11T12:54:28;100989.10;;;23.44;27.31
34658;BME280;20865;43.312;27.152;2023-05-11T12:56:56;100989.97;;;23.45;28.02
34658;BME280;20865;43.312;27.152;2023-05-11T12:59:27;100994.19;;;23.74;27.45
34658;BME280;20865;43.312;27.152;2023-05-11T13:01:51;100990.70;;;23.72;28.12
34658;BME280;20865;43.312;27.152;2023-05-11T13:04:26;100989.68;;;23.11;28.67
34658;BME280;20865;43.312;27.152;2023-05-11T13:06:46;100990.70;;;23.28;28.68
34658;BME280;20865;43.312;27.152;2023-05-11T13:09:25;100987.90;;;23.36;28.51
34658;BME280;20865;43.312;27.152;2023-05-11T13:12:08;100979.36;;;23.53;28.93
34658;BME280;20865;43.312;27.152;2023-05-11T13:14:35;100983.39;;;23.29;28.16
34658;BME280;20865;43.312;27.152;2023-05-11T13:17:02;100980.36;;;23.08;28.32
34658;BME280;20865;43.312;27.152;2023-05-11T13:19:29;100970.02;;;22.55;28.19
34658;BME280;20865;43.312;27.152;2023-05-11T13:21:58;100974.39;;;22.83;27.54
34658;BME280;20865;43.312;27.152;2023-05-11T13:24:25;100967.93;;;23.29;27.58
34658;BME280;20865;43.312;27.152;2023-05-11T13:26:52;100969.41;;;22.77;29.14
34658;BME280;20865;43.312;27.152;2023-05-11T13:29:20;100966.41;;;22.74;28.87
34658;BME280;20865;43.312;27.152;2023-05-11T13:31:48;100977.27;;;23.07;28.62
34658;BME280;20865;43.312;27.152;2023-05-11T13:34:15;100986.05;;;23.05;28.88
34658;BME280;20865;43.312;27.152;2023-05-11T13:36:42;100974.88;;;23.15;28.47
34658;BME280;20865;43.312;27.152;2023-05-11T13:39:09;100977.78;;;23.25;28.44
34658;BME280;20865;43.312;27.152;2023-05-11T13:41:36;100972.66;;;22.82;28.60
34658;BME280;20865;43.312;27.152;2023-05-11T13:44:03;100976.91;;;23.24;28.68
34658;BME280;20865;43.312;27.152;2023-05-11T13:46:30;100976.33;;;23.26;27.28
34658;BME280;20865;43.312;27.152;2023-05-11T13:48:57;100970.75;;;23.46;27.21
34658;BME280;20865;43.312;27.152;2023-05-11T13:51:24;100968.06;;;23.15;26.89
34658;BME280;20865;43.312;27.152;2023-05-11T13:53:52;100968.56;;;22.69;27.66
34658;BME280;20865;43.312;27.152;2023-05-11T13:56:19;100983.96;;;22.50;27.17
34658;BME280;20865;43.312;27.152;2023-05-11T13:58:46;100978.39;;;22.85;26.97
34658;BME280;20865;43.312;27.152;2023-05-11T14:01:13;100975.91;;;22.62;27.70
34658;BME280;20865;43.312;27.152;2023-05-11T14:03:40;100968.31;;;22.67;28.31
34658;BME280;20865;43.312;27.152;2023-05-11T14:06:07;100967.04;;;22.65;29.20
34658;BME280;20865;43.312;27.152;2023-05-11T14:08:33;100977.16;;;22.96;27.97